createdAt,value
2018-01-11T00:00:40.902Z,6.80
2018-01-11T00:03:08.586Z,10.13
2018-01-11T00:05:36.194Z,8.77
2018-01-11T00:08:04.625Z,11.57
2018-01-11T00:10:32.249Z,12.50
2018-01-11T00:13:00.646Z,14.50
2018-01-11T00:15:28.296Z,9.75
2018-01-11T00:17:55.915Z,9.63
2018-01-11T00:20:23.580Z,10.38
2018-01-11T00:22:51.168Z,13.95
2018-01-11T00:25:18.779Z,10.15
2018-01-11T00:27:46.441Z,10.35
2018-01-11T00:30:14.104Z,9.05
2018-01-11T00:32:41.702Z,7.97
2018-01-11T00:35:10.113Z,8.02
2018-01-11T00:37:37.700Z,8.07
2018-01-11T00:40:05.280Z,6.28
2018-01-11T00:42:32.916Z,5.70
2018-01-11T00:45:00.620Z,9.13
2018-01-11T00:47:28.995Z,8.65
2018-01-11T00:49:57.385Z,6.68
2018-01-11T00:52:25.857Z,9.27
2018-01-11T00:54:53.455Z,8.45
2018-01-11T00:57:21.078Z,6.37
2018-01-11T00:59:48.725Z,6.87
2018-01-11T01:02:16.372Z,7.47
2018-01-11T01:04:44.028Z,7.12
2018-01-11T01:07:11.616Z,9.13
2018-01-11T01:09:40.040Z,9.20
2018-01-11T01:12:07.657Z,8.70
2018-01-11T01:14:35.300Z,11.93
2018-01-11T01:17:02.884Z,11.10
2018-01-11T01:19:30.534Z,12.88
2018-01-11T01:21:58.139Z,10.45
2018-01-11T01:24:25.798Z,15.50
2018-01-11T01:26:53.452Z,12.00
2018-01-11T01:29:21.078Z,12.30
2018-01-11T01:31:48.700Z,13.48
2018-01-11T01:34:16.389Z,15.10
2018-01-11T01:36:44.000Z,15.45
2018-01-11T01:39:11.680Z,17.25
2018-01-11T01:41:39.336Z,16.70
2018-01-11T01:44:06.962Z,16.05
2018-01-11T01:46:35.312Z,14.18
2018-01-11T01:49:02.935Z,14.85
2018-01-11T01:51:30.526Z,14.30
2018-01-11T01:53:58.214Z,14.50
2018-01-11T01:56:25.789Z,13.07
2018-01-11T01:58:53.439Z,17.42
2018-01-11T02:01:21.040Z,16.62
2018-01-11T02:03:48.647Z,17.45
2018-01-11T02:06:16.283Z,21.52
2018-01-11T02:08:43.923Z,19.83
2018-01-11T02:11:11.597Z,24.00
2018-01-11T02:13:39.198Z,26.10
2018-01-11T02:16:06.801Z,28.48
2018-01-11T02:18:34.398Z,25.58
2018-01-11T02:21:02.013Z,23.65
2018-01-11T02:23:29.651Z,25.48
2018-01-11T02:25:57.273Z,24.05
2018-01-11T02:28:24.910Z,30.17
2018-01-11T02:30:52.537Z,26.85
2018-01-11T02:33:20.904Z,25.52
2018-01-11T02:35:49.357Z,24.40
2018-01-11T02:38:16.943Z,28.45
2018-01-11T02:40:44.574Z,26.92
2018-01-11T02:43:12.161Z,26.87
2018-01-11T02:45:39.788Z,25.35
2018-01-11T02:48:07.392Z,21.75
2018-01-11T02:50:36.363Z,27.20
2018-01-11T02:53:03.982Z,26.83
2018-01-11T02:55:31.591Z,26.95
2018-01-11T02:57:59.224Z,27.23
2018-01-11T03:00:28.775Z,28.27
2018-01-11T03:02:57.171Z,31.75
2018-01-11T03:05:25.598Z,32.63
2018-01-11T03:07:53.202Z,36.00
2018-01-11T03:10:20.829Z,38.60
2018-01-11T03:12:48.471Z,33.25
2018-01-11T03:15:16.051Z,39.35
2018-01-11T03:17:43.657Z,39.58
2018-01-11T03:20:11.245Z,31.85
2018-01-11T03:22:38.889Z,28.20
2018-01-11T03:25:06.518Z,31.95
2018-01-11T03:27:34.928Z,30.90
2018-01-11T03:30:02.585Z,28.65
2018-01-11T03:32:30.224Z,28.25
2018-01-11T03:34:58.620Z,28.50
2018-01-11T03:37:26.276Z,26.70
2018-01-11T03:39:53.864Z,23.90
2018-01-11T03:42:21.485Z,30.15
2018-01-11T03:44:49.872Z,24.37
2018-01-11T03:47:17.484Z,29.42
2018-01-11T03:49:45.111Z,22.58
2018-01-11T03:52:12.728Z,21.67
2018-01-11T03:54:40.347Z,27.10
2018-01-11T03:57:07.983Z,30.20
2018-01-11T03:59:35.623Z,31.48
2018-01-11T04:02:03.987Z,31.08
2018-01-11T04:04:31.631Z,30.77
2018-01-11T04:06:59.254Z,36.42
2018-01-11T04:09:26.905Z,36.63
2018-01-11T04:11:54.525Z,31.67
2018-01-11T04:14:22.156Z,32.17
2018-01-11T04:16:49.786Z,42.58
2018-01-11T04:19:17.398Z,36.72
2018-01-11T04:21:45.072Z,38.28
2018-01-11T04:24:12.701Z,40.55
2018-01-11T04:26:40.315Z,43.83
2018-01-11T04:29:08.728Z,41.33
2018-01-11T04:31:36.375Z,38.22
2018-01-11T04:34:03.990Z,46.92
2018-01-11T04:36:31.615Z,44.38
2018-01-11T04:38:59.248Z,55.58
2018-01-11T04:41:26.879Z,57.15
2018-01-11T04:43:54.465Z,72.78
2018-01-11T04:46:22.852Z,56.13
2018-01-11T04:48:50.502Z,43.25
2018-01-11T04:51:18.873Z,30.88
2018-01-11T04:53:47.256Z,30.45
2018-01-11T04:56:15.659Z,31.52
2018-01-11T04:58:43.242Z,38.35
2018-01-11T05:01:10.864Z,39.63
2018-01-11T05:03:38.501Z,38.22
2018-01-11T05:06:06.105Z,38.97
2018-01-11T05:08:33.707Z,40.72
2018-01-11T05:11:01.336Z,36.70
2018-01-11T05:13:29.004Z,36.95
2018-01-11T05:15:56.595Z,37.40
2018-01-11T05:18:24.200Z,37.40
2018-01-11T05:20:51.771Z,38.10
2018-01-11T05:23:19.407Z,31.33
2018-01-11T05:25:47.737Z,40.28
2018-01-11T05:28:15.374Z,38.15
2018-01-11T05:30:42.936Z,36.80
2018-01-11T05:33:10.530Z,33.25
2018-01-11T05:35:38.166Z,32.05
2018-01-11T05:38:05.799Z,33.38
2018-01-11T05:40:33.415Z,35.08
2018-01-11T05:43:01.030Z,22.33
2018-01-11T05:45:28.642Z,25.50
2018-01-11T05:47:56.254Z,28.40
2018-01-11T05:50:23.892Z,26.95
2018-01-11T05:52:52.298Z,24.63
2018-01-11T05:55:19.923Z,30.92
2018-01-11T05:57:48.315Z,54.30
2018-01-11T06:00:16.719Z,39.00
2018-01-11T06:02:44.335Z,39.85
2018-01-11T06:05:12.691Z,44.70
2018-01-11T06:07:40.290Z,31.00
2018-01-11T06:10:08.699Z,29.80
2018-01-11T06:12:36.323Z,29.98
2018-01-11T06:15:04.663Z,25.15
2018-01-11T06:17:32.247Z,29.73
2018-01-11T06:20:00.612Z,27.27
2018-01-11T06:22:28.209Z,35.45
2018-01-11T06:24:55.776Z,34.15
2018-01-11T06:27:23.381Z,28.50
2018-01-11T06:29:51.018Z,25.35
2018-01-11T06:32:18.619Z,31.65
2018-01-11T06:34:46.164Z,31.00
2018-01-11T06:37:13.783Z,27.77
2018-01-11T06:39:41.415Z,25.62
2018-01-11T06:42:09.790Z,30.05
2018-01-11T06:44:38.179Z,24.35
2018-01-11T06:47:06.587Z,27.52
2018-01-11T06:52:06.003Z,25.25
2018-01-11T06:54:33.534Z,63.20
2018-01-11T06:57:01.883Z,49.55
2018-01-11T06:59:29.479Z,50.47
2018-01-11T07:01:57.093Z,40.40
2018-01-11T07:04:24.673Z,45.90
2018-01-11T07:06:53.291Z,50.83
2018-01-11T07:09:20.901Z,46.63
2018-01-11T07:11:48.479Z,67.05
2018-01-11T07:14:16.138Z,73.97
2018-01-11T07:16:43.708Z,60.92
2018-01-11T07:19:12.099Z,77.85
2018-01-11T07:21:40.477Z,135.30
2018-01-11T07:24:08.834Z,88.60
2018-01-11T07:26:36.426Z,68.10
2018-01-11T07:29:04.024Z,54.95
2018-01-11T07:31:31.635Z,33.78
2018-01-11T07:34:00.006Z,32.13
2018-01-11T07:36:28.354Z,33.38
2018-01-11T07:38:55.987Z,63.42
2018-01-11T07:41:23.578Z,42.00
2018-01-11T07:43:51.210Z,31.27
2018-01-11T07:46:18.852Z,38.33
2018-01-11T07:48:46.454Z,33.42
2018-01-11T07:51:14.095Z,47.28
2018-01-11T07:53:42.501Z,43.22
2018-01-11T07:56:10.079Z,39.03
2018-01-11T07:58:37.687Z,45.63
2018-01-11T08:01:05.299Z,22.65
2018-01-11T08:03:32.888Z,22.77
2018-01-11T08:06:00.523Z,19.25
2018-01-11T08:08:28.122Z,15.55
2018-01-11T08:10:55.753Z,17.98
2018-01-11T08:13:24.126Z,17.60
2018-01-11T08:15:52.484Z,15.82
2018-01-11T08:18:20.110Z,17.30
2018-01-11T08:20:47.719Z,41.80
2018-01-11T08:23:15.307Z,79.95
2018-01-11T08:25:42.942Z,48.15
2018-01-11T08:28:11.336Z,50.42
2018-01-11T08:30:39.691Z,24.48
2018-01-11T08:33:07.288Z,22.95
2018-01-11T08:35:34.924Z,17.17
2018-01-11T08:38:03.284Z,14.98
2018-01-11T08:40:30.900Z,14.75
2018-01-11T08:42:58.480Z,12.18
2018-01-11T08:45:26.053Z,15.65
2018-01-11T08:47:53.648Z,15.75
2018-01-11T08:50:21.968Z,14.32
2018-01-11T08:52:49.594Z,24.02
2018-01-11T08:55:17.164Z,17.23
2018-01-11T08:57:44.792Z,16.25
2018-01-11T09:00:12.376Z,12.90
2018-01-11T09:02:39.963Z,14.40
2018-01-11T09:05:07.584Z,12.77
2018-01-11T09:07:35.999Z,15.47
2018-01-11T09:10:03.610Z,15.23
2018-01-11T09:12:31.245Z,13.40
2018-01-11T09:14:58.851Z,15.10
2018-01-11T09:17:26.487Z,13.33
2018-01-11T09:19:54.063Z,13.17
2018-01-11T09:22:22.444Z,12.97
2018-01-11T09:24:50.776Z,13.57
2018-01-11T09:27:18.349Z,12.37
2018-01-11T09:29:45.984Z,17.40
2018-01-11T09:32:13.592Z,15.13
2018-01-11T09:34:41.169Z,12.10
2018-01-11T09:37:08.767Z,13.97
2018-01-11T09:39:36.359Z,12.67
2018-01-11T09:42:03.961Z,15.63
2018-01-11T09:44:31.539Z,11.90
2018-01-11T09:46:59.163Z,12.53
2018-01-11T09:49:27.527Z,13.77
2018-01-11T09:51:55.103Z,11.30
2018-01-11T09:54:23.447Z,11.17
2018-01-11T09:56:51.037Z,15.20
2018-01-11T09:59:19.462Z,11.13
2018-01-11T10:01:47.067Z,14.07
2018-01-11T10:04:15.491Z,11.87
2018-01-11T10:06:43.092Z,27.50
2018-01-11T10:09:10.719Z,12.83
2018-01-11T10:11:38.315Z,11.47
2018-01-11T10:14:05.885Z,25.80
2018-01-11T10:16:33.433Z,14.17
2018-01-11T10:19:01.031Z,10.00
2018-01-11T10:21:29.374Z,21.83
2018-01-11T10:23:56.949Z,9.33
2018-01-11T10:26:25.319Z,10.17
2018-01-11T10:28:52.901Z,9.77
2018-01-11T10:31:21.263Z,9.70
2018-01-11T10:33:49.599Z,10.87
2018-01-11T10:36:17.232Z,9.87
2018-01-11T10:38:44.798Z,9.40
2018-01-11T10:41:12.397Z,9.23
2018-01-11T10:43:40.023Z,9.47
2018-01-11T10:46:07.648Z,10.93
2018-01-11T10:48:36.037Z,9.93
2018-01-11T10:51:04.427Z,8.83
2018-01-11T10:53:32.005Z,13.10
2018-01-11T10:55:59.652Z,10.70
2018-01-11T10:58:27.264Z,10.50
2018-01-11T11:01:00.419Z,10.30
2018-01-11T11:03:28.025Z,9.90
2018-01-11T11:05:55.633Z,10.53
2018-01-11T11:08:23.277Z,10.77
2018-01-11T11:10:50.859Z,10.63
2018-01-11T11:13:18.454Z,13.97
2018-01-11T11:15:46.058Z,14.67
2018-01-11T11:18:13.639Z,11.43
2018-01-11T11:20:41.241Z,13.83
2018-01-11T11:23:08.830Z,12.50
2018-01-11T11:25:36.431Z,15.10
2018-01-11T11:28:04.044Z,14.43
2018-01-11T11:30:45.202Z,14.60
2018-01-11T11:33:12.814Z,16.07
2018-01-11T11:35:40.401Z,15.23
2018-01-11T11:38:08.030Z,14.93
2018-01-11T11:40:35.627Z,15.45
2018-01-11T11:43:03.233Z,13.05
2018-01-11T11:45:30.860Z,12.32
2018-01-11T11:47:58.536Z,13.52
2018-01-11T11:50:26.080Z,13.02
2018-01-11T11:52:53.687Z,18.23
2018-01-11T11:55:21.308Z,13.73
2018-01-11T11:57:48.903Z,10.10
2018-01-11T12:00:16.482Z,10.15
2018-01-11T12:02:44.063Z,10.65
2018-01-11T12:05:11.684Z,10.23
2018-01-11T12:07:39.273Z,11.45
2018-01-11T12:10:06.837Z,11.35
2018-01-11T12:12:34.433Z,10.48
2018-01-11T12:15:02.054Z,8.60
2018-01-11T12:17:29.655Z,8.25
2018-01-11T12:19:57.991Z,9.75
2018-01-11T12:22:25.570Z,9.45
2018-01-11T12:24:53.175Z,11.40
2018-01-11T12:27:20.765Z,12.05
2018-01-11T12:29:48.431Z,12.27
2018-01-11T12:32:15.999Z,9.75
2018-01-11T12:34:43.604Z,10.80
2018-01-11T12:37:11.248Z,10.40
2018-01-11T12:39:39.596Z,11.10
2018-01-11T12:42:07.265Z,17.48
2018-01-11T12:44:34.887Z,13.60
2018-01-11T12:47:02.480Z,10.00
2018-01-11T12:49:30.091Z,10.05
2018-01-11T12:51:57.682Z,11.45
2018-01-11T12:54:25.310Z,11.07
2018-01-11T12:56:52.876Z,19.27
2018-01-11T12:59:20.462Z,12.43
2018-01-11T13:01:48.057Z,13.02
2018-01-11T13:04:15.639Z,19.67
2018-01-11T13:06:44.005Z,19.10
2018-01-11T13:09:11.576Z,13.35
2018-01-11T13:11:39.191Z,13.10
2018-01-11T13:14:06.820Z,10.68
2018-01-11T13:16:34.439Z,9.45
2018-01-11T13:19:02.075Z,9.80
2018-01-11T13:21:29.666Z,11.88
2018-01-11T13:23:58.019Z,12.35
2018-01-11T13:26:25.624Z,12.90
2018-01-11T13:28:53.230Z,12.52
2018-01-11T13:31:20.842Z,15.30
2018-01-11T13:33:49.163Z,11.43
2018-01-11T13:36:16.759Z,10.88
2018-01-11T13:38:44.367Z,14.15
2018-01-11T13:41:11.970Z,14.25
2018-01-11T13:43:39.582Z,14.55
2018-01-11T13:46:07.188Z,16.62
2018-01-11T13:48:34.771Z,28.62
2018-01-11T13:51:03.172Z,22.25
2018-01-11T13:53:30.800Z,15.85
2018-01-11T13:55:58.425Z,20.70
2018-01-11T13:58:26.035Z,19.45
2018-01-11T14:00:54.389Z,17.77
2018-01-11T14:03:21.953Z,17.90
2018-01-11T14:05:49.597Z,16.83
2018-01-11T14:08:17.186Z,18.30
2018-01-11T14:10:45.549Z,15.75
2018-01-11T14:13:13.158Z,16.95
2018-01-11T14:15:40.783Z,16.83
2018-01-11T14:18:09.206Z,20.60
2018-01-11T14:20:36.831Z,14.50
2018-01-11T14:23:05.248Z,13.68
2018-01-11T14:25:32.868Z,16.70
2018-01-11T14:28:00.440Z,13.73
2018-01-11T14:30:28.847Z,12.53
2018-01-11T14:32:56.443Z,12.73
2018-01-11T14:35:24.089Z,13.82
2018-01-11T14:37:51.715Z,12.95
2018-01-11T14:40:19.308Z,15.23
2018-01-11T14:42:46.883Z,15.02
2018-01-11T14:45:14.467Z,15.90
2018-01-11T14:47:42.816Z,14.60
2018-01-11T14:50:10.464Z,13.30
2018-01-11T14:52:38.089Z,12.68
2018-01-11T14:55:05.686Z,13.62
2018-01-11T14:57:33.301Z,14.73
2018-01-11T15:00:00.915Z,13.00
2018-01-11T15:05:55.746Z,13.38
2018-01-11T15:08:23.386Z,17.35
2018-01-11T15:10:51.017Z,11.60
2018-01-11T15:13:18.642Z,14.18
2018-01-11T15:15:47.064Z,12.82
2018-01-11T15:18:14.682Z,17.13
2018-01-11T15:20:42.294Z,15.40
2018-01-11T15:23:09.923Z,13.55
2018-01-11T15:25:38.306Z,14.27
2018-01-11T15:28:05.941Z,15.90
2018-01-11T15:30:33.580Z,13.98
2018-01-11T15:33:01.206Z,16.27
2018-01-11T15:35:28.822Z,20.27
2018-01-11T15:37:56.448Z,20.92
2018-01-11T15:40:24.059Z,25.65
2018-01-11T15:42:52.420Z,23.15
2018-01-11T15:45:20.033Z,22.17
2018-01-11T15:47:47.663Z,15.43
2018-01-11T15:50:16.077Z,19.25
2018-01-11T15:52:43.695Z,14.07
2018-01-11T15:55:12.071Z,18.40
2018-01-11T15:57:40.441Z,16.58
2018-01-11T16:00:08.053Z,17.10
2018-01-11T16:02:35.647Z,19.40
2018-01-11T16:05:03.301Z,23.98
2018-01-11T16:07:30.915Z,18.80
2018-01-11T16:09:58.482Z,18.20
2018-01-11T16:12:26.125Z,17.42
2018-01-11T16:14:53.683Z,16.25
2018-01-11T16:17:22.069Z,18.52
2018-01-11T16:19:49.671Z,16.30
2018-01-11T16:22:17.279Z,19.17
2018-01-11T16:24:45.652Z,15.18
2018-01-11T16:27:14.103Z,16.77
2018-01-11T16:29:41.749Z,15.30
2018-01-11T16:32:09.419Z,11.52
2018-01-11T16:34:37.039Z,14.63
2018-01-11T16:37:04.647Z,12.02
2018-01-11T16:39:32.266Z,14.23
2018-01-11T16:41:59.915Z,16.50
2018-01-11T16:44:28.260Z,17.45
2018-01-11T16:46:55.853Z,20.12
2018-01-11T16:49:23.536Z,17.75
2018-01-11T16:51:51.138Z,15.15
2018-01-11T16:54:18.720Z,15.45
2018-01-11T16:56:47.114Z,18.87
2018-01-11T16:59:14.712Z,17.35
2018-01-11T17:01:42.310Z,19.10
2018-01-11T17:04:09.932Z,16.73
2018-01-11T17:06:37.505Z,17.27
2018-01-11T17:09:05.115Z,19.50
2018-01-11T17:11:32.716Z,22.90
2018-01-11T17:14:00.367Z,19.98
2018-01-11T17:16:27.979Z,19.98
2018-01-11T17:18:56.382Z,25.23
2018-01-11T17:21:23.995Z,20.95
2018-01-11T17:23:51.595Z,20.02
2018-01-11T17:26:19.201Z,33.50
2018-01-11T17:28:46.827Z,22.15
2018-01-11T17:31:14.442Z,36.53
2018-01-11T17:33:42.000Z,27.35
2018-01-11T17:36:09.609Z,25.30
2018-01-11T17:38:37.239Z,25.48
2018-01-11T17:41:06.125Z,26.25
2018-01-11T17:43:34.546Z,31.33
2018-01-11T17:46:02.180Z,30.98
2018-01-11T17:48:29.792Z,28.33
2018-01-11T17:50:57.426Z,24.20
2018-01-11T17:53:25.059Z,25.17
2018-01-11T17:55:53.423Z,26.02
2018-01-11T17:58:21.798Z,27.80
2018-01-11T18:00:49.415Z,22.65
2018-01-11T18:03:17.033Z,28.23
2018-01-11T18:05:44.746Z,26.70
2018-01-11T18:08:13.791Z,28.90
2018-01-11T18:10:42.211Z,26.30
2018-01-11T18:13:14.443Z,31.77
2018-01-11T18:15:42.075Z,30.45
2018-01-11T18:18:09.693Z,31.80
2018-01-11T18:20:37.308Z,27.62
2018-01-11T18:23:05.691Z,34.55
2018-01-11T18:25:34.148Z,32.88
2018-01-11T18:28:01.860Z,28.25
2018-01-11T18:30:29.495Z,30.27
2018-01-11T18:32:57.967Z,32.40
2018-01-11T18:35:25.597Z,32.00
2018-01-11T18:37:53.279Z,33.78
2018-01-11T18:40:20.938Z,32.20
2018-01-11T18:42:48.608Z,27.33
2018-01-11T18:45:36.421Z,29.77
2018-01-11T18:48:04.070Z,30.35
2018-01-11T18:50:31.767Z,26.12
2018-01-11T18:52:59.367Z,33.40
2018-01-11T18:55:27.075Z,32.17
2018-01-11T18:57:54.742Z,37.03
2018-01-11T19:00:22.384Z,32.00
2018-01-11T19:02:51.979Z,30.58
2018-01-11T19:05:19.639Z,36.42
2018-01-11T19:07:47.290Z,32.20
2018-01-11T19:10:14.947Z,39.20
2018-01-11T19:12:43.518Z,50.22
2018-01-11T19:15:11.992Z,52.20
2018-01-11T19:17:40.452Z,39.95
2018-01-11T19:20:08.082Z,51.37
2018-01-11T19:22:35.740Z,48.85
2018-01-11T19:25:03.395Z,44.72
2018-01-11T19:27:31.001Z,38.50
2018-01-11T19:29:59.456Z,42.30
2018-01-11T19:32:27.933Z,41.40
2018-01-11T19:34:55.645Z,42.88
2018-01-11T19:37:36.853Z,44.97
2018-01-11T19:40:16.054Z,53.03
2018-01-11T19:42:44.445Z,41.00
2018-01-11T19:45:12.132Z,37.30
2018-01-11T19:47:39.838Z,45.53
2018-01-11T19:50:08.255Z,44.15
2018-01-11T19:52:35.865Z,37.13
2018-01-11T19:55:03.507Z,45.20
2018-01-11T19:57:31.213Z,37.63
2018-01-11T19:59:58.847Z,40.12
2018-01-11T20:02:27.257Z,31.10
2018-01-11T20:04:54.871Z,33.50
2018-01-11T20:07:22.531Z,35.00
2018-01-11T20:09:50.213Z,29.73
2018-01-11T20:12:17.910Z,26.80
2018-01-11T20:14:45.547Z,27.60
2018-01-11T20:17:13.173Z,37.30
2018-01-11T20:19:40.874Z,38.40
2018-01-11T20:22:09.287Z,34.80
2018-01-11T20:24:36.917Z,40.38
2018-01-11T20:27:04.576Z,37.03
2018-01-11T20:29:32.258Z,40.75
2018-01-11T20:31:59.893Z,40.08
2018-01-11T20:34:27.580Z,75.60
2018-01-11T20:36:55.201Z,65.10
2018-01-11T20:39:22.893Z,50.35
2018-01-11T20:41:51.308Z,40.50
2018-01-11T20:44:18.982Z,41.85
2018-01-11T20:46:46.619Z,41.55
2018-01-11T20:49:14.275Z,39.33
2018-01-11T20:51:41.943Z,51.88
2018-01-11T20:54:09.568Z,63.35
2018-01-11T20:56:37.189Z,47.17
2018-01-11T20:59:04.789Z,51.47
2018-01-11T21:01:33.232Z,56.83
2018-01-11T21:04:00.987Z,52.13
2018-01-11T21:06:28.633Z,42.15
2018-01-11T21:08:56.319Z,43.10
2018-01-11T21:11:24.105Z,55.80
2018-01-11T21:13:51.873Z,53.78
2018-01-11T21:16:20.380Z,46.67
2018-01-11T21:18:48.812Z,42.42
2018-01-11T21:21:16.507Z,43.17
2018-01-11T21:23:44.152Z,45.55
2018-01-11T21:26:11.813Z,57.35
2018-01-11T21:28:39.526Z,48.08
2018-01-11T21:31:07.231Z,52.90
2018-01-11T21:33:38.202Z,53.78
2018-01-11T21:36:05.897Z,43.28
2018-01-11T21:38:33.572Z,49.80
2018-01-11T21:41:01.287Z,60.85
2018-01-11T21:43:29.708Z,49.40
2018-01-11T21:45:57.389Z,50.35
2018-01-11T21:48:25.014Z,50.92
2018-01-11T21:50:52.739Z,48.63
2018-01-11T21:53:20.395Z,54.22
2018-01-11T21:55:48.101Z,50.83
2018-01-11T21:58:15.816Z,54.70
2018-01-11T22:00:43.564Z,56.58
2018-01-11T22:03:11.252Z,63.00
2018-01-11T22:05:39.716Z,63.75
2018-01-11T22:08:07.448Z,62.97
2018-01-11T22:10:35.110Z,73.03
2018-01-11T22:13:02.768Z,61.60
2018-01-11T22:15:30.431Z,65.93
2018-01-11T22:17:58.049Z,65.32
2018-01-11T22:20:25.727Z,76.95
2018-01-11T22:22:54.197Z,72.50
2018-01-11T22:25:22.776Z,70.80
2018-01-11T22:27:51.174Z,64.00
2018-01-11T22:30:18.836Z,60.22
2018-01-11T22:32:47.288Z,64.22
2018-01-11T22:35:14.942Z,62.67
2018-01-11T22:37:42.642Z,58.58
2018-01-11T22:40:11.096Z,53.72
2018-01-11T22:42:38.771Z,56.67
2018-01-11T22:45:07.176Z,59.35
2018-01-11T22:47:34.840Z,58.08
2018-01-11T22:50:02.495Z,64.05
2018-01-11T22:52:30.248Z,63.53
2018-01-11T22:54:57.930Z,63.05
2018-01-11T22:57:25.591Z,61.13
2018-01-11T22:59:53.291Z,55.22
2018-01-11T23:02:21.005Z,57.17
2018-01-11T23:04:48.657Z,57.13
2018-01-11T23:07:17.242Z,54.28
2018-01-11T23:09:44.909Z,54.13
2018-01-11T23:12:12.554Z,55.25
2018-01-11T23:14:40.987Z,52.55
2018-01-11T23:17:08.718Z,64.68
2018-01-11T23:19:36.361Z,58.47
2018-01-11T23:22:04.780Z,56.35
2018-01-11T23:24:32.449Z,58.60
2018-01-11T23:27:00.054Z,52.90
2018-01-11T23:29:28.457Z,58.10
2018-01-11T23:31:56.100Z,60.40
2018-01-11T23:34:24.502Z,59.78
2018-01-11T23:36:52.937Z,56.47
2018-01-11T23:39:20.597Z,57.30
2018-01-11T23:41:48.283Z,54.65
2018-01-11T23:44:16.668Z,56.28
2018-01-11T23:46:44.286Z,54.13
2018-01-11T23:49:11.908Z,54.45
2018-01-11T23:51:39.578Z,58.80
2018-01-11T23:54:07.309Z,64.60
2018-01-11T23:56:35.712Z,58.55
2018-01-11T23:59:03.367Z,61.10
